Latest Weather Observations for Parafield

IDS60901

Issued at 12:05 pm CST Wednesday 24 September 2014 (issued every 10 minutes, with the page automatically refreshed every 10 minutes)

About weather observations | Map of Adelaide area stations | Latest observations for Adelaide area | Other Formats
Station Details ID: 023013 Name: PARAFIELD AIRPORT Lat: -34.80 Lon: 138.63 Height: 9.5 m
Data from the previous 72 hours. | See also: Recent months at Parafield
Date/Time
CST
Tmp

°C
App
Tmp
°C
Dew
Point
°C
Rel
Hum
%
Delta-T

°C
Wind Press
QNH
hPa
Press
MSL
hPa
Rain
since
9 am
mm
Dir
 
Spd
km/h
Gust
km/h
Spd
kts
Gust
kts
24/12:00pm 21.7 19.2 12.3 55 5.3 W 17 20 9 11 1014.4 1014.4 0.0
24/11:30am 21.6 18.8 11.3 52 5.7 WNW 17 24 9 13 1014.6 1014.6 0.0
24/11:00am 22.0 19.7 10.5 48 6.3 NW 13 20 7 11 1014.6 1014.6 0.0
24/10:30am 21.5 19.2 10.6 50 6.0 WNW 13 19 7 10 1014.8 1014.8 0.0
24/10:00am 20.5 19.4 12.0 58 4.7 NNE 9 15 5 8 1015.1 1015.1 0.0
24/09:30am 19.4 18.5 11.4 60 4.4 N 7 11 4 6 1015.5 1015.5 0.0
24/09:00am 19.3 18.1 11.6 61 4.2 NNW 9 15 5 8 1015.3 1015.3 0.0
24/08:30am 17.5 16.1 12.2 71 2.9 NNW 11 15 6 8 1015.3 1015.3 0.0
24/08:00am 17.3 14.1 11.8 70 3.0 NNW 20 26 11 14 1014.8 1014.8 0.0
24/07:30am 17.7 17.9 11.7 68 3.3 E 2 9 1 5 1014.1 1014.1 0.0
24/07:00am 14.6 13.5 11.9 84 1.5 E 9 11 5 6 1013.8 1013.8 0.0
24/06:30am 13.4 12.3 10.6 83 1.5 ENE 7 9 4 5 1013.9 1013.9 0.0
24/06:00am 14.7 13.4 11.1 79 1.9 N 9 15 5 8 1014.1 1014.1 0.0
24/05:30am 13.2 12.0 10.4 83 1.5 NE 7 9 4 5 1013.6 1013.6 0.0
24/05:00am 13.7 13.9 10.5 81 1.7 CALM 0 0 0 0 1013.7 1013.7 0.0
24/04:30am 14.6 13.2 10.8 78 2.0 E 9 13 5 7 1013.5 1013.5 0.0
24/04:00am 14.8 13.3 10.6 76 2.2 E 9 11 5 6 1013.6 1013.6 0.0
24/03:30am 16.1 14.7 10.8 71 2.8 NNE 9 13 5 7 1014.0 1014.0 0.0
24/03:00am 16.0 14.2 11.0 72 2.7 NE 11 13 6 7 1014.2 1014.2 0.0
24/02:30am 16.8 15.5 11.1 69 3.1 NNE 9 13 5 7 1014.6 1014.6 0.0
24/02:00am 17.2 15.0 10.8 66 3.4 NNE 13 17 7 9 1015.2 1015.2 0.0
24/01:30am 17.7 14.8 11.0 65 3.6 NNE 17 20 9 11 1015.4 1015.4 0.0
24/01:00am 17.9 14.4 11.0 64 3.7 NNE 20 28 11 15 1015.6 1015.6 0.0
24/12:30am 18.4 14.6 11.0 62 4.0 NNE 22 32 12 17 1015.7 1015.7 0.0
24/12:00am 18.5 14.7 11.3 63 3.9 NNE 22 33 12 18 1016.0 1016.0 0.0
 
Date/Time
CST
Tmp

°C
App
Tmp
°C
Dew
Point
°C
Rel
Hum
%
Delta-T

°C
Wind Press
QNH
hPa
Press
MSL
hPa
Rain
since
9 am
mm
Dir
 
Spd
km/h
Gust
km/h
Spd
kts
Gust
kts
23/11:30pm 18.2 15.1 11.5 65 3.7 NE 19 24 10 13 1015.8 1015.8 0.0
23/11:00pm 18.5 15.6 11.1 62 4.0 NE 17 22 9 12 1015.7 1015.7 0.0
23/10:30pm 18.1 15.3 11.4 65 3.6 NE 17 20 9 11 1015.7 1015.7 0.0
23/10:00pm 17.9 14.8 11.5 66 3.5 E 19 24 10 13 1015.7 1015.7 0.0
23/09:30pm 17.5 16.2 12.4 72 2.8 ENE 11 13 6 7 1016.3 1016.3 0.0
23/09:00pm 17.4 15.3 12.3 72 2.8 N 15 20 8 11 1016.7 1016.7 0.0
23/08:30pm 18.8 16.3 10.9 60 4.3 ENE 15 17 8 9 1016.4 1016.4 0.0
23/08:00pm 18.8 16.3 10.9 60 4.3 NE 15 17 8 9 1016.5 1016.5 0.0
23/07:30pm 19.3 16.3 10.6 57 4.7 N 17 24 9 13 1016.2 1016.2 0.0
23/07:00pm 20.6 16.7 9.5 49 5.9 N 20 28 11 15 1015.8 1015.8 0.0
23/06:30pm 20.0 16.7 9.6 51 5.5 E 17 22 9 12 1014.8 1014.8 0.0
23/06:00pm 19.8 17.0 10.0 53 5.2 E 15 20 8 11 1014.8 1014.8 0.0
23/05:30pm 21.2 17.8 10.4 50 5.9 E 19 30 10 16 1014.9 1014.9 0.0
23/05:08pm 23.4 17.7 8.3 38 8.0 ENE 28 43 15 23 1015.1 1015.1 0.0
23/05:00pm 23.8 22.7 9.8 41 7.6 N 6 7 3 4 1014.8 1014.8 0.0
23/04:30pm 24.2 20.3 8.6 37 8.4 NNW 19 28 10 15 1014.8 1014.8 0.0
23/04:00pm 24.9 20.6 8.0 34 9.0 NNE 20 30 11 16 1014.8 1014.8 0.0
23/03:30pm 25.2 20.4 7.3 32 9.4 NNE 22 32 12 17 1015.1 1015.1 0.0
23/03:00pm 25.9 21.1 7.5 31 9.8 N 22 35 12 19 1015.5 1015.5 0.0
23/02:30pm 26.4 20.6 7.9 31 9.9 N 28 44 15 24 1015.9 1015.9 0.0
23/02:00pm 26.9 20.3 7.9 30 10.2 NNE 32 39 17 21 1016.3 1016.3 0.0
23/01:30pm 26.3 20.0 8.8 33 9.5 NNE 32 44 17 24 1016.6 1016.6 0.0
23/01:00pm 26.0 20.1 8.9 34 9.3 NNE 30 43 16 23 1017.0 1017.0 0.0
23/12:30pm 25.5 18.6 8.9 35 9.0 NNE 35 48 19 26 1017.7 1017.7 0.0
23/12:00pm 24.9 18.3 8.4 35 8.8 N 33 48 18 26 1018.2 1018.2 0.0
23/11:30am 24.8 18.6 9.5 38 8.3 NNE 32 46 17 25 1018.7 1018.7 0.0
23/11:00am 23.9 17.5 9.5 40 7.8 NNE 33 48 18 26 1019.1 1019.1 0.0
23/10:30am 23.1 16.8 8.8 40 7.6 NNE 32 41 17 22 1019.5 1019.5 0.0
23/10:00am 22.8 17.2 8.9 41 7.4 N 28 43 15 23 1019.9 1019.9 0.0
23/09:30am 22.2 17.0 9.0 43 7.0 NNE 26 39 14 21 1020.4 1020.4 0.0
23/09:00am 21.4 16.6 8.7 44 6.7 NNE 24 35 13 19 1020.7 1020.7 0.0
23/08:30am 20.8 16.7 8.8 46 6.3 N 20 28 11 15 1021.1 1021.1 0.0
23/08:00am 19.5 16.3 8.5 49 5.7 N 15 20 8 11 1021.4 1021.4 0.0
23/07:30am 18.3 14.9 7.7 50 5.4 NNE 15 19 8 10 1021.5 1021.5 0.0
23/07:00am 17.4 13.0 7.2 51 5.1 NE 20 30 11 16 1021.3 1021.3 0.0
23/06:30am 14.7 10.6 6.0 56 4.1 NE 17 17 9 9 1021.1 1021.1 0.0
23/06:00am 13.9 9.9 5.0 55 4.1 NE 15 19 8 10 1021.0 1021.0 0.0
23/05:30am 14.7 11.4 4.7 51 4.6 NNE 11 15 6 8 1021.0 1021.0 0.0
23/05:00am 15.4 10.8 3.9 46 5.3 ENE 17 20 9 11 1020.7 1020.7 0.0
23/04:30am 15.7 11.0 3.2 43 5.7 ENE 17 20 9 11 1020.7 1020.7 0.0
23/04:00am 17.7 12.4 2.1 35 7.1 NE 19 26 10 14 1020.6 1020.6 0.0
23/03:30am 18.6 13.1 1.6 32 7.6 NE 20 28 11 15 1020.6 1020.6 0.0
23/03:00am 18.4 12.2 -0.4 28 8.1 NE 22 35 12 19 1020.6 1020.6 0.0
23/02:30am 18.3 12.0 -1.0 27 8.2 NE 22 30 12 16 1020.5 1020.5 0.0
23/02:00am 18.3 12.0 -1.0 27 8.2 NE 22 28 12 15 1020.6 1020.6 0.0
23/01:30am 19.1 12.4 -1.4 25 8.7 NNE 24 32 13 17 1021.0 1021.0 0.0
23/01:00am 19.3 12.9 -1.7 24 8.9 NE 22 32 12 17 1021.2 1021.2 0.0
23/12:30am 19.6 13.1 -2.1 23 9.1 NE 22 28 12 15 1021.5 1021.5 0.0
23/12:00am 19.9 13.4 -2.4 22 9.3 NE 22 30 12 16 1021.5 1021.5 0.0
 
Date/Time
CST
Tmp

°C
App
Tmp
°C
Dew
Point
°C
Rel
Hum
%
Delta-T

°C
Wind Press
QNH
hPa
Press
MSL
hPa
Rain
since
9 am
mm
Dir
 
Spd
km/h
Gust
km/h
Spd
kts
Gust
kts
22/11:30pm 19.9 13.0 -2.4 22 9.3 NE 24 30 13 16 1021.5 1021.5 0.0
22/11:00pm 18.8 12.7 -2.2 24 8.8 NE 20 24 11 13 1021.7 1021.6 0.0
22/10:30pm 17.2 12.0 -2.4 26 8.0 ENE 15 20 8 11 1021.8 1021.7 0.0
22/10:00pm 18.5 12.9 -3.0 23 8.8 ENE 17 20 9 11 1021.7 1021.6 0.0
22/09:30pm 19.5 13.4 -4.0 20 9.5 E 19 24 10 13 1021.5 1021.5 0.0
22/09:00pm 19.6 13.5 -3.9 20 9.5 E 19 22 10 12 1021.4 1021.4 0.0
22/08:30pm 19.6 13.6 -3.3 21 9.4 E 19 22 10 12 1021.3 1021.3 0.0
22/08:00pm 19.4 13.4 -2.8 22 9.2 E 19 20 10 11 1021.2 1021.2 0.0
22/07:30pm 18.1 13.0 -1.7 26 8.3 E 15 17 8 9 1021.2 1021.2 0.0
22/07:00pm 18.1 13.5 -1.2 27 8.2 E 13 15 7 8 1021.1 1021.1 0.0
22/06:30pm 18.8 14.2 -1.1 26 8.5 E 13 15 7 8 1020.7 1020.7 0.0
22/06:00pm 21.3 16.3 -1.3 22 9.8 ENE 15 17 8 9 1020.5 1020.5 0.0
22/05:30pm 23.8 18.8 -1.2 19 11.1 NE 15 19 8 10 1020.4 1020.4 0.0
22/05:00pm 25.4 19.7 -4.0 14 12.6 NNE 17 22 9 12 1020.3 1020.3 0.0
22/04:30pm 25.5 19.3 -4.9 13 12.8 NNE 19 28 10 15 1020.3 1020.3 0.0
22/04:00pm 26.3 21.1 -2.4 15 12.8 NNE 15 20 8 11 1020.4 1020.4 0.0
22/03:30pm 26.5 19.7 -2.2 15 12.8 N 24 30 13 16 1020.7 1020.7 0.0
22/03:00pm 26.6 20.5 -4.0 13 13.2 N 19 28 10 15 1020.9 1020.9 0.0
22/02:30pm 26.6 20.0 -3.1 14 13.0 N 22 33 12 18 1021.2 1021.2 0.0
22/02:00pm 26.2 19.9 -4.4 13 13.1 NNE 20 30 11 16 1021.5 1021.5 0.0
22/01:30pm 26.5 20.0 -2.2 15 12.8 NNE 22 32 12 17 1022.0 1021.9 0.0
22/01:00pm 25.9 19.5 -1.8 16 12.4 N 22 32 12 17 1022.4 1022.3 0.0
22/12:30pm 25.0 18.1 -2.5 16 12.0 NNE 24 30 13 16 1023.0 1022.9 0.0
22/12:00pm 25.1 18.5 -0.1 19 11.5 NNE 24 33 13 18 1023.5 1023.4 0.0
22/11:30am 24.3 17.5 -1.5 18 11.4 NNE 24 33 13 18 1024.1 1024.0 0.0
22/11:00am 24.2 17.9 -0.9 19 11.3 N 22 35 12 19 1024.6 1024.6 0.0
22/10:30am 23.7 17.2 0.1 21 10.7 N 24 35 13 19 1025.0 1025.0 0.0
22/10:00am 22.5 15.9 -0.3 22 10.2 NNE 24 35 13 19 1025.3 1025.3 0.0
22/09:30am 21.3 14.3 -0.6 23 9.6 NNE 26 35 14 19 1025.8 1025.8 0.0
22/09:00am 21.1 15.5 1.4 27 9.0 NNE 20 30 11 16 1025.9 1025.9 0.0
22/08:30am 19.6 13.8 0.1 27 8.5 NE 20 26 11 14 1026.0 1026.0 0.0
22/08:00am 18.2 12.1 0.4 30 7.8 NE 22 28 12 15 1026.1 1026.1 0.0
22/07:30am 16.5 11.1 1.0 35 6.7 NE 19 24 10 13 1026.1 1026.1 0.0
22/07:00am 14.0 8.9 0.6 40 5.7 NE 17 20 9 11 1026.1 1026.1 0.0
22/06:30am 10.0 5.7 0.9 53 3.7 NNE 13 15 7 8 1026.0 1026.0 0.0
22/06:00am 9.4 5.0 0.6 54 3.5 NE 13 17 7 9 1025.9 1025.9 0.0
22/05:30am 9.9 5.5 0.3 51 3.9 NNE 13 15 7 8 1025.7 1025.7 0.0
22/05:00am 10.2 5.1 0.5 51 3.9 NNE 17 19 9 10 1025.6 1025.6 0.0
22/04:30am 9.7 4.7 1.1 55 3.5 N 17 19 9 10 1025.5 1025.5 0.0
22/04:00am 11.6 6.2 1.3 49 4.3 NNE 19 20 10 11 1025.2 1025.2 0.0
22/03:30am 11.3 6.3 1.5 51 4.1 ENE 17 17 9 9 1025.3 1025.3 0.0
22/03:00am 10.0 5.4 1.6 56 3.5 NE 15 17 8 9 1025.5 1025.5 0.0
22/02:30am 9.9 5.1 2.5 60 3.1 N 17 19 9 10 1025.8 1025.8 0.0
22/02:00am 10.6 6.7 1.2 52 3.9 E 11 13 6 7 1026.0 1026.0 0.0
22/01:30am 9.3 6.8 1.5 58 3.2 ESE 4 7 2 4 1026.4 1026.4 0.0
22/01:00am 8.6 5.1 1.5 61 2.9 E 9 11 5 6 1026.7 1026.7 0.0
22/12:30am 10.5 6.7 1.6 54 3.7 E 11 13 6 7 1026.7 1026.7 0.0
22/12:00am 12.1 7.9 1.4 48 4.5 E 13 13 7 7 1026.6 1026.6 0.0
 
Date/Time
CST
Tmp

°C
App
Tmp
°C
Dew
Point
°C
Rel
Hum
%
Delta-T

°C
Wind Press
QNH
hPa
Press
MSL
hPa
Rain
since
9 am
mm
Dir
 
Spd
km/h
Gust
km/h
Spd
kts
Gust
kts
21/11:30pm 13.6 8.7 1.9 45 5.0 ENE 17 20 9 11 1026.4 1026.4 0.0
21/11:00pm 12.0 8.2 1.9 50 4.3 ENE 11 15 6 8 1026.6 1026.6 0.0
21/10:30pm 12.5 8.0 2.1 49 4.5 E 15 20 8 11 1026.7 1026.7 0.0
21/10:00pm 12.3 9.8 4.0 57 3.7 ENE 6 7 3 4 1027.1 1027.1 0.0
21/09:30pm 10.3 9.3 5.7 73 2.1 CALM 0 0 0 0 1027.3 1027.3 0.0
21/09:00pm 10.1 8.9 4.5 68 2.5 CALM 0 0 0 0 1027.5 1027.5 0.0
21/08:30pm 13.1 12.0 5.3 59 3.6 CALM 0 0 0 0 1027.2 1027.2 0.0
21/08:00pm 13.8 12.8 5.4 57 3.9 CALM 0 0 0 0 1027.3 1027.3 0.0
21/07:30pm 14.4 11.9 5.0 53 4.4 SE 7 9 4 5 1027.2 1027.2 0.0
21/07:00pm 16.9 13.9 4.3 43 5.9 S 9 11 5 6 1027.0 1027.0 0.0
21/06:30pm 15.6 12.4 4.9 49 5.0 SW 11 13 6 7 1026.9 1026.9 0.0
21/06:00pm 17.9 15.0 4.8 42 6.2 SSW 9 11 5 6 1026.6 1026.6 0.0
21/05:30pm 19.9 16.6 4.8 37 7.3 SW 11 17 6 9 1026.6 1026.6 0.0
21/05:00pm 22.0 20.1 5.0 33 8.4 S 4 9 2 5 1026.5 1026.5 0.0
21/04:30pm 23.1 19.2 3.6 28 9.4 ENE 13 17 7 9 1026.3 1026.3 0.0
21/04:00pm 23.4 20.2 2.8 26 9.9 NE 9 17 5 9 1026.1 1026.1 0.0
21/03:30pm 23.5 19.5 2.9 26 9.8 ENE 13 20 7 11 1026.2 1026.2 0.0
21/03:00pm 24.1 20.0 2.3 24 10.3 NNE 13 20 7 11 1026.3 1026.3 0.0
21/02:30pm 24.3 21.4 2.5 24 10.4 NNE 7 13 4 7 1026.7 1026.7 0.0
21/02:00pm 24.1 21.1 2.3 24 10.4 N 7 11 4 6 1027.0 1027.0 0.0
21/01:30pm 23.2 20.3 1.5 24 10.1 SW 6 9 3 5 1027.5 1027.5 0.0
21/01:00pm 23.2 19.4 1.5 24 10.1 ESE 11 20 6 11 1028.0 1028.0 0.0
21/12:30pm 22.8 19.8 2.3 26 9.6 WNW 7 17 4 9 1028.8 1028.8 0.0

Latest Capital City Observations: Canberra | Sydney | Melbourne | Brisbane | Adelaide | Perth | Hobart | Darwin

Other Formats:

Comma delimited format used in spreadsheet applications
http://www.bom.gov.au/fwo/IDS60901/IDS60901.95677.axf

JavaScript Object Notation format (JSON) in row-major order
http://www.bom.gov.au/fwo/IDS60901/IDS60901.95677.json